Latest Weather Observations for St Helens

IDT60801

Issued at 11:21 pm EDT Friday 15 November 2019 (issued every 10 minutes, with the page automatically refreshed every 10 minutes)

About weather observations | Map of weather stations | Latest weather observations for TAS | Other Formats
Station Details ID: 092120 Name: ST HELENS AERODROME Lat: -41.34 Lon: 148.28 Height: 48.0 m
Data from the previous 72 hours. | See also: Recent months at St Helens
Date/Time
EDT
Temp
°C
App
Temp
°C
Dew
Point
°C
Rel
Hum
%
Delta-T
°C
Wind Press
QNH
hPa
Press
MSL
hPa
Rain since
9am
mm
Dir  Spd
km/h
Gust
km/h
Spd
kts
Gust
kts
15/11:00pm 10.9 6.6 1.2 51 4.1 WSW 13 22 7 12 1006.1 1006.1 0.0
15/10:30pm 11.3 6.1 0.4 47 4.5 W 17 28 9 15 1006.0 1006.0 0.0
15/10:00pm 11.4 7.0 0.2 46 4.6 W 13 24 7 13 1005.8 1005.8 0.0
15/09:30pm 12.0 8.3 0.1 44 4.9 W 9 20 5 11 1005.4 1005.4 0.0
15/09:00pm 12.4 7.9 -0.5 41 5.3 WSW 13 26 7 14 1005.0 1005.0 0.0
15/08:30pm 12.9 9.1 -0.7 39 5.6 WSW 9 26 5 14 1004.4 1004.4 0.0
15/08:00pm 13.5 8.1 -1.3 36 6.0 WSW 17 33 9 18 1003.7 1003.7 0.0
15/07:30pm 14.2 8.2 -1.8 33 6.5 WSW 20 39 11 21 1002.9 1002.9 0.0
15/07:00pm 15.3 9.3 -1.3 32 6.8 WSW 20 43 11 23 1002.4 1002.4 0.0
15/06:30pm 16.2 10.5 -0.5 32 7.1 WSW 19 33 10 18 1001.6 1001.6 0.0
15/06:00pm 15.4 11.1 3.5 45 5.5 WSW 15 28 8 15 1001.2 1001.1 0.0
15/05:30pm 16.0 10.8 3.8 44 5.6 WNW 20 37 11 20 1000.8 1000.8 0.0
15/05:00pm 16.1 10.9 2.5 40 6.1 W 19 35 10 19 1000.0 1000.0 0.0
15/04:30pm 16.4 11.1 4.8 46 5.5 W 22 39 12 21 999.9 999.9 0.0
15/04:00pm 17.4 12.7 3.0 38 6.6 W 17 33 9 18 999.3 999.3 0.0
15/03:30pm 17.8 12.5 1.7 34 7.2 W 19 37 10 20 999.1 999.1 0.0
15/03:00pm 18.5 13.1 2.4 34 7.4 W 20 37 11 20 998.9 998.8 0.0
15/02:30pm 18.9 13.6 3.1 35 7.4 W 20 39 11 21 998.7 998.7 0.0
15/02:00pm 19.8 14.8 1.3 29 8.4 WSW 17 30 9 16 998.6 998.6 0.0
15/01:48pm 18.1 12.6 0.3 30 7.8 W 19 46 10 25 998.5 998.5 0.0
15/01:47pm 18.4 13.0 1.0 31 7.8 W 19 46 10 25 998.5 998.5 0.0
15/01:30pm 19.6 14.3 1.6 30 8.2 W 19 33 10 18 998.6 998.6 0.0
15/01:00pm 19.6 13.9 -0.9 25 8.9 WSW 19 30 10 16 998.5 998.5 0.0
15/12:30pm 18.7 13.2 1.7 32 7.7 WNW 20 33 11 18 998.6 998.6 0.0
15/12:00pm 18.6 13.4 2.4 34 7.5 WNW 19 35 10 19 998.8 998.9 0.0
15/11:30am 18.2 13.3 1.7 33 7.4 W 17 33 9 18 999.0 999.0 0.0
15/11:00am 17.4 12.0 1.4 34 7.1 W 19 35 10 19 999.3 999.3 0.0
15/10:30am 16.9 12.2 2.9 39 6.4 WNW 17 33 9 18 999.6 999.6 0.0
15/10:00am 17.0 12.7 3.3 40 6.3 WNW 15 28 8 15 999.7 999.7 0.0
15/09:30am 16.4 11.2 3.5 42 6.0 W 20 32 11 17 999.7 999.7 0.0
15/09:00am 15.5 11.4 4.2 47 5.3 WSW 15 26 8 14 999.8 999.9 0.0
15/08:30am 14.7 10.8 5.2 53 4.5 WSW 15 30 8 16 999.7 999.7 0.0
15/08:00am 14.8 9.9 4.2 49 4.9 WSW 19 33 10 18 999.1 999.1 0.0
15/07:30am 14.0 9.8 5.9 58 3.9 W 17 28 9 15 998.9 998.9 0.0
15/07:00am 13.5 9.3 5.7 59 3.7 W 17 35 9 19 999.1 999.1 0.0
15/06:30am 13.1 7.5 5.3 59 3.6 W 24 44 13 24 999.0 999.0 0.0
15/06:00am 12.8 8.9 5.5 61 3.4 W 15 32 8 17 998.9 998.9 0.0
15/05:30am 12.9 8.2 5.1 59 3.6 W 19 30 10 16 998.7 998.7 0.0
15/05:00am 12.9 8.2 5.3 60 3.5 W 19 32 10 17 998.4 998.4 0.0
15/04:30am 13.0 8.6 6.6 65 3.1 W 19 32 10 17 998.4 998.4 0.0
15/04:00am 12.8 8.5 6.8 67 2.9 WNW 19 32 10 17 998.2 998.2 0.0
15/03:30am 13.1 8.6 6.2 63 3.3 W 19 37 10 20 998.2 998.2 0.0
15/03:00am 13.1 8.7 6.7 65 3.1 W 19 39 10 21 998.3 998.3 0.0
15/02:30am 13.2 8.2 6.5 64 3.2 W 22 35 12 19 998.6 998.6 0.0
15/02:00am 13.3 8.7 6.6 64 3.2 W 20 37 11 20 998.7 998.7 0.0
15/01:30am 13.4 8.4 6.3 62 3.4 WNW 22 56 12 30 999.0 999.0 0.0
15/01:00am 13.4 7.9 6.0 61 3.5 WNW 24 46 13 25 999.2 999.2 0.0
15/12:30am 13.5 8.5 6.4 62 3.4 W 22 41 12 22 999.6 999.6 0.0
15/12:00am 13.2 8.6 6.5 64 3.2 W 20 39 11 21 999.8 999.8 0.0
 
Date/Time
EDT
Temp
°C
App
Temp
°C
Dew
Point
°C
Rel
Hum
%
Delta-T
°C
Wind Press
QNH
hPa
Press
MSL
hPa
Rain since
9am
mm
Dir  Spd
km/h
Gust
km/h
Spd
kts
Gust
kts
14/11:30pm 13.2 7.8 6.3 63 3.3 W 24 39 13 21 999.7 999.7 0.0
14/11:00pm 13.2 8.6 6.3 63 3.3 W 20 39 11 21 999.7 999.7 0.0
14/10:30pm 13.5 8.0 6.1 61 3.5 W 24 41 13 22 999.8 999.8 0.0
14/10:00pm 13.4 8.7 6.0 61 3.5 W 20 35 11 19 999.8 999.8 0.0
14/09:30pm 13.5 8.9 6.6 63 3.3 W 20 41 11 22 1000.1 1000.1 0.0
14/09:00pm 13.8 9.2 6.4 61 3.6 W 20 46 11 25 1000.1 1000.2 0.0
14/08:30pm 14.1 8.8 6.7 61 3.6 W 24 48 13 26 1000.5 1000.5 0.0
14/08:00pm 14.4 9.9 7.0 61 3.6 W 20 39 11 21 1000.6 1000.6 0.0
14/07:30pm 15.0 10.6 7.3 60 3.8 W 20 33 11 18 1000.5 1000.5 0.0
14/07:00pm 16.0 9.9 6.7 54 4.6 W 28 50 15 27 1000.3 1000.3 0.0
14/06:30pm 17.2 12.4 7.3 52 5.0 W 22 41 12 22 999.9 999.9 0.0
14/06:00pm 17.7 13.3 7.2 50 5.3 W 20 43 11 23 1000.0 1000.1 0.0
14/05:30pm 18.3 13.9 7.4 49 5.5 W 20 35 11 19 1000.3 1000.3 0.0
14/05:00pm 18.3 13.2 7.7 50 5.4 W 24 46 13 25 1000.5 1000.5 0.0
14/04:30pm 18.7 14.2 8.7 52 5.2 WNW 22 39 12 21 1000.1 1000.1 0.0
14/04:00pm 18.3 13.2 7.7 50 5.4 W 24 46 13 25 1000.1 1000.1 0.0
14/03:30pm 19.1 14.5 8.1 49 5.7 W 22 43 12 23 1000.0 1000.0 0.0
14/03:00pm 19.4 13.2 7.8 47 6.0 W 30 54 16 29 999.8 999.9 0.0
14/02:43pm 18.9 13.0 7.7 48 5.7 W 28 52 15 28 1000.2 1000.2 0.0
14/02:30pm 19.2 15.0 8.2 49 5.7 W 20 41 11 22 999.9 999.9 0.0
14/02:00pm 18.5 13.2 8.5 52 5.2 WNW 26 44 14 24 1000.6 1000.6 0.0
14/01:32pm 18.2 12.6 8.7 54 4.9 WNW 28 46 15 25 1001.0 1001.0 0.0
14/01:30pm 18.2 12.7 9.0 55 4.8 WNW 28 44 15 24 1001.0 1001.0 0.0
14/01:00pm 17.5 11.9 8.6 56 4.6 NW 28 50 15 27 1001.4 1001.4 0.0
14/12:33pm 16.9 10.8 8.3 57 4.4 NW 30 48 16 26 1001.9 1001.9 0.0
14/12:30pm 17.4 11.9 9.1 58 4.3 NW 28 44 15 24 1001.9 1001.9 0.0
14/12:00pm 17.6 12.7 8.5 55 4.7 WNW 24 44 13 24 1002.3 1002.4 0.0
14/11:30am 17.2 12.8 8.9 58 4.3 W 22 41 12 22 1002.5 1002.5 0.0
14/11:00am 16.8 12.2 8.2 57 4.4 WNW 22 44 12 24 1002.9 1002.9 0.0
14/10:30am 16.3 11.0 8.5 60 4.0 NW 26 39 14 21 1003.1 1003.1 0.0
14/10:00am 15.0 10.9 8.5 65 3.3 NW 20 35 11 19 1003.5 1003.5 0.0
14/09:30am 14.1 10.5 8.5 69 2.8 NW 17 28 9 15 1003.9 1003.9 0.0
14/09:00am 13.9 10.3 8.5 70 2.7 NW 17 32 9 17 1004.0 1004.0 0.0
14/08:30am 13.6 9.6 8.2 70 2.7 NW 19 32 10 17 1003.9 1003.9 0.0
14/08:00am 13.3 9.3 8.4 72 2.4 NW 19 32 10 17 1003.9 1003.9 0.0
14/07:30am 12.9 8.7 8.4 74 2.2 WNW 20 35 11 19 1003.8 1003.8 0.0
14/07:00am 12.5 8.4 8.0 74 2.2 WNW 19 37 10 20 1004.1 1004.1 0.0
14/06:30am 12.0 8.2 7.7 75 2.1 NNW 17 32 9 17 1004.3 1004.3 0.0
14/06:00am 11.9 7.2 7.8 76 2.0 WNW 22 32 12 17 1004.5 1004.5 0.0
14/05:30am 11.6 7.2 7.3 75 2.1 WNW 20 32 11 17 1004.4 1004.4 0.0
14/05:00am 11.3 6.9 6.6 73 2.2 NW 19 30 10 16 1004.3 1004.3 0.0
14/04:30am 11.1 6.4 6.0 71 2.4 WNW 20 33 11 18 1004.9 1004.9 0.0
14/04:00am 11.1 7.1 4.8 65 2.9 W 15 26 8 14 1005.1 1005.1 0.0
14/03:30am 10.8 6.9 3.4 60 3.2 NNW 13 22 7 12 1005.5 1005.5 0.0
14/03:00am 10.7 7.0 2.5 57 3.5 WNW 11 17 6 9 1005.6 1005.6 0.0
14/02:30am 10.8 6.4 2.6 57 3.5 NW 15 20 8 11 1005.9 1005.9 0.0
14/02:00am 11.0 7.0 2.8 57 3.6 W 13 20 7 11 1006.1 1006.1 0.0
14/01:30am 11.1 7.1 2.9 57 3.6 W 13 24 7 13 1006.1 1006.1 0.0
14/01:00am 11.2 6.5 3.3 58 3.5 W 17 24 9 13 1005.8 1005.8 0.0
14/12:30am 10.6 6.7 3.4 61 3.2 NW 13 17 7 9 1006.2 1006.2 0.0
14/12:00am 11.0 7.1 3.3 59 3.4 NW 13 22 7 12 1006.3 1006.3 0.0
 
Date/Time
EDT
Temp
°C
App
Temp
°C
Dew
Point
°C
Rel
Hum
%
Delta-T
°C
Wind Press
QNH
hPa
Press
MSL
hPa
Rain since
9am
mm
Dir  Spd
km/h
Gust
km/h
Spd
kts
Gust
kts
13/11:30pm 11.3 8.1 3.3 58 3.5 WSW 9 24 5 13 1006.0 1006.0 0.0
13/11:00pm 11.4 7.1 3.2 57 3.6 WNW 15 24 8 13 1005.6 1005.6 0.0
13/10:30pm 11.8 8.3 1.2 48 4.5 NW 9 11 5 6 1005.4 1005.4 0.0
13/10:00pm 11.1 8.0 1.4 51 4.1 SW 7 11 4 6 1005.3 1005.3 0.0
13/09:30pm 12.9 9.5 1.6 46 4.9 WNW 9 15 5 8 1004.9 1004.9 0.0
13/09:00pm 13.2 9.8 2.1 47 4.9 NNW 9 11 5 6 1004.4 1004.4 0.0
13/08:30pm 14.7 11.0 0.2 37 6.1 WSW 9 17 5 9 1003.6 1003.6 0.0
13/08:00pm 15.0 10.3 -1.5 32 6.8 SW 13 24 7 13 1003.0 1003.0 0.0
13/07:30pm 16.1 11.0 -1.9 29 7.4 SW 15 35 8 19 1002.4 1002.4 0.0
13/07:00pm 16.9 9.7 -2.2 27 7.9 SW 26 46 14 25 1001.5 1001.5 0.0
13/06:39pm 17.5 11.2 -1.2 28 7.9 WSW 22 46 12 25 1000.9 1000.9 0.0
13/06:30pm 17.8 11.2 -0.5 29 7.9 WSW 24 44 13 24 1000.7 1000.7 0.0
13/06:04pm 18.4 10.9 -1.4 26 8.4 SW 28 52 15 28 1000.1 1000.1 0.0
13/06:00pm 18.5 12.3 -0.3 28 8.2 SW 22 41 12 22 1000.3 1000.1 0.0
13/05:34pm 19.2 11.7 -1.3 25 8.8 SW 28 54 15 29 999.8 999.8 0.0
13/05:30pm 19.4 12.2 -1.7 24 9.0 SSW 26 54 14 29 999.7 999.7 0.0
13/05:00pm 19.0 10.7 -2.0 24 8.8 SW 32 67 17 36 999.0 999.0 0.0
13/04:48pm 19.5 12.1 -1.0 25 8.9 SW 28 80 15 43 998.6 998.6 0.0
13/04:30pm 19.7 14.4 3.0 33 7.8 WSW 20 44 11 24 998.2 998.2 0.0
13/04:00pm 19.3 14.5 5.4 40 6.8 WSW 20 43 11 23 997.9 997.8 0.0
13/03:30pm 17.7 14.4 8.0 53 4.9 SW 15 30 8 16 997.5 997.4 0.0
13/03:00pm 18.2 13.4 8.7 54 5.0 W 24 48 13 26 997.6 997.7 0.0
13/02:49pm 17.2 11.4 8.1 55 4.6 W 28 46 15 25 997.8 997.7 0.0
13/02:30pm 16.7 11.2 7.6 55 4.6 W 26 43 14 23 998.3 998.3 0.0
13/02:00pm 16.4 10.2 7.9 57 4.3 W 30 50 16 27 998.7 998.7 0.0
13/01:30pm 15.7 9.4 7.2 57 4.2 W 30 61 16 33 998.8 998.8 0.0
13/01:00pm 14.4 8.3 6.5 59 3.8 W 28 56 15 30 999.4 999.4 0.0
13/12:59pm 14.5 8.3 6.3 58 4.0 W 28 56 15 30 999.5 999.5 0.0
13/12:30pm 14.7 9.1 7.0 60 3.8 W 26 46 14 25 999.6 999.6 0.0
13/12:04pm 14.5 8.7 6.1 57 4.0 W 26 54 14 29 999.8 999.8 0.0
13/12:00pm 14.7 8.8 5.8 55 4.3 W 26 54 14 29 999.9 999.9 0.0
13/11:30am 14.7 7.8 4.7 51 4.7 W 30 54 16 29 1000.2 1000.2 0.0
13/11:00am 14.8 8.0 3.3 46 5.2 WNW 28 46 15 25 1001.1 1001.1 0.0
13/10:52am 15.2 8.9 4.0 47 5.2 WNW 26 46 14 25 1001.2 1001.2 0.0
13/10:30am 13.4 8.2 3.5 51 4.5 WSW 20 41 11 22 1001.2 1001.2 0.0
13/10:00am 12.0 6.6 2.7 53 4.1 WNW 20 35 11 19 1002.1 1002.1 0.0
13/09:30am 11.6 6.4 3.4 57 3.6 NW 20 33 11 18 1002.4 1002.4 0.0
13/09:00am 11.2 6.1 3.0 57 3.6 WNW 19 30 10 16 1003.1 1003.2 0.0
13/08:30am 10.4 6.1 3.0 60 3.2 NW 15 26 8 14 1003.5 1003.5 0.0
13/08:00am 9.4 4.4 1.6 58 3.2 WNW 17 32 9 17 1003.8 1003.8 0.0
13/07:30am 8.8 4.3 1.9 62 2.9 NW 15 26 8 14 1003.8 1003.8 0.0
13/07:00am 7.6 3.8 1.7 66 2.4 NW 11 15 6 8 1003.8 1003.8 0.0
13/06:30am 6.6 2.7 0.9 67 2.3 NNW 11 17 6 9 1003.9 1003.9 0.0
13/06:00am 6.7 2.0 0.8 66 2.4 NNW 15 22 8 12 1003.7 1003.7 0.0
13/05:30am 6.3 2.4 1.2 70 2.0 WNW 11 17 6 9 1003.6 1003.6 0.0
13/05:00am 6.3 2.3 0.8 68 2.2 NW 11 17 6 9 1003.3 1003.3 0.0
13/04:30am 6.8 2.5 0.9 66 2.3 WNW 13 20 7 11 1003.4 1003.4 0.0
13/04:00am 7.0 2.3 0.7 64 2.5 NW 15 20 8 11 1003.4 1003.4 0.0
13/03:30am 7.1 2.8 0.8 64 2.5 NW 13 22 7 12 1003.4 1003.4 0.0
13/03:00am 7.2 2.2 1.1 65 2.5 NW 17 22 9 12 1003.3 1003.3 0.0
13/02:30am 7.1 2.8 1.2 66 2.4 NNW 13 17 7 9 1003.2 1003.2 0.0
13/02:00am 7.2 2.9 1.3 66 2.4 NW 13 19 7 10 1003.4 1003.4 0.0
13/01:30am 7.4 3.1 1.3 65 2.5 NW 13 20 7 11 1003.3 1003.3 0.0
13/01:00am 8.0 3.8 1.4 63 2.7 NW 13 19 7 10 1003.3 1003.3 0.0
13/12:30am 8.3 4.0 1.2 61 2.9 NW 13 20 7 11 1003.3 1003.3 0.0
13/12:00am 8.7 4.7 0.7 57 3.2 W 11 19 6 10 1003.1 1003.0 0.0
 
Date/Time
EDT
Temp
°C
App
Temp
°C
Dew
Point
°C
Rel
Hum
%
Delta-T
°C
Wind Press
QNH
hPa
Press
MSL
hPa
Rain since
9am
mm
Dir  Spd
km/h
Gust
km/h
Spd
kts
Gust
kts
12/11:30pm 8.9 5.0 1.1 58 3.2 WSW 11 19 6 10 1002.9 1002.9 0.0

Other formats

Comma delimited format used in spreadsheet applications
http://www.bom.gov.au/fwo/IDT60801/IDT60801.95981.axf

JavaScript Object Notation format (JSON) in row-major order
http://www.bom.gov.au/fwo/IDT60801/IDT60801.95981.json

Data quality

Most of these data are generated automatically and are frequently updated. Quality checks on data are not normally performed. It is possible for incorrect values to appear. Refer to information at About Latest Weather Observations and please check the disclaimer before using these data.